createdAt,value
2023-05-06T00:02:11.379Z,988.26
2023-05-06T00:07:15.502Z,988.23
2023-05-06T00:12:19.696Z,988.30
2023-05-06T00:17:21.974Z,988.18
2023-05-06T00:22:26.103Z,988.13
2023-05-06T00:27:28.411Z,988.19
2023-05-06T00:32:32.598Z,988.24
2023-05-06T00:37:36.718Z,988.19
2023-05-06T00:42:40.853Z,988.23
2023-05-06T00:47:45.052Z,988.19
2023-05-06T00:52:49.169Z,988.12
2023-05-06T00:57:53.412Z,988.28
2023-05-06T01:02:57.609Z,988.25
2023-05-06T01:08:01.675Z,988.38
2023-05-06T01:13:05.878Z,988.38
2023-05-06T01:18:10.162Z,988.47
2023-05-06T01:23:14.202Z,988.54
2023-05-06T01:28:18.341Z,988.41
2023-05-06T01:33:22.510Z,988.58
2023-05-06T01:38:26.682Z,988.63
2023-05-06T01:43:30.814Z,988.53
2023-05-06T01:48:35.001Z,988.46
2023-05-06T01:53:39.106Z,988.50
2023-05-06T01:58:43.278Z,988.64
2023-05-06T02:03:47.579Z,988.54
2023-05-06T02:08:51.613Z,988.61
2023-05-06T02:13:53.864Z,988.78
2023-05-06T02:18:58.070Z,988.73
2023-05-06T02:24:02.236Z,988.77
2023-05-06T02:29:06.362Z,988.82
2023-05-06T02:34:10.559Z,988.75
2023-05-06T02:39:14.690Z,988.78
2023-05-06T02:44:18.877Z,988.87
2023-05-06T02:49:23.019Z,988.72
2023-05-06T02:54:27.252Z,988.74
2023-05-06T02:59:31.366Z,988.84
2023-05-06T03:04:35.577Z,988.87
2023-05-06T03:09:39.692Z,988.90
2023-05-06T03:14:43.820Z,988.83
2023-05-06T03:19:47.997Z,988.79
2023-05-06T03:24:52.167Z,988.83
2023-05-06T03:29:56.317Z,988.89
2023-05-06T03:35:00.559Z,988.97
2023-05-06T03:40:04.658Z,989.06
2023-05-06T03:45:09.268Z,989.08
2023-05-06T03:50:12.990Z,988.97
2023-05-06T03:55:17.136Z,989.00
2023-05-06T04:00:19.381Z,989.04
2023-05-06T04:05:23.533Z,989.10
2023-05-06T04:10:25.852Z,989.08
2023-05-06T04:15:29.978Z,989.05
2023-05-06T04:20:34.177Z,988.92
2023-05-06T04:25:38.322Z,988.95
2023-05-06T04:30:42.476Z,988.95
2023-05-06T04:35:46.647Z,988.92
2023-05-06T04:40:50.822Z,988.98
2023-05-06T04:45:55.148Z,988.90
2023-05-06T04:50:59.158Z,988.86
2023-05-06T04:56:03.308Z,988.89
2023-05-06T05:01:07.517Z,988.98
2023-05-06T05:06:11.611Z,989.02
2023-05-06T05:11:15.800Z,989.05
2023-05-06T05:16:19.971Z,989.01
2023-05-06T05:21:24.117Z,988.96
2023-05-06T05:26:28.321Z,988.82
2023-05-06T05:31:32.506Z,988.80
2023-05-06T05:36:36.598Z,988.83
2023-05-06T05:41:40.763Z,988.78
2023-05-06T05:46:44.949Z,988.81
2023-05-06T05:51:49.066Z,988.78
2023-05-06T05:56:51.327Z,988.73
2023-05-06T06:01:55.500Z,988.73
2023-05-06T06:06:57.789Z,988.63
2023-05-06T06:12:01.936Z,988.61
2023-05-06T06:17:04.210Z,988.43
2023-05-06T06:22:08.354Z,988.48
2023-05-06T06:27:12.553Z,988.37
2023-05-06T06:32:16.675Z,988.30
2023-05-06T06:37:20.925Z,988.39
2023-05-06T06:42:25.270Z,988.30
2023-05-06T06:47:29.229Z,988.15
2023-05-06T06:52:33.369Z,988.17
2023-05-06T06:57:37.467Z,988.10
2023-05-06T07:02:41.681Z,988.09
2023-05-06T07:07:45.793Z,987.94
2023-05-06T07:12:49.974Z,987.67
2023-05-06T07:17:54.170Z,987.51
2023-05-06T07:22:58.268Z,987.39
2023-05-06T07:28:02.445Z,987.26
2023-05-06T07:33:06.698Z,987.27
2023-05-06T07:38:10.804Z,987.12
2023-05-06T07:43:14.973Z,986.88
2023-05-06T07:48:20.201Z,986.72
2023-05-06T07:53:23.271Z,986.93
2023-05-06T07:58:27.440Z,987.06
2023-05-06T08:03:29.894Z,987.60
2023-05-06T08:08:33.853Z,988.28
2023-05-06T08:13:36.137Z,989.22
2023-05-06T08:18:40.311Z,990.46
2023-05-06T08:23:44.448Z,991.36
2023-05-06T08:28:48.611Z,991.78
2023-05-06T08:33:54.617Z,991.81
2023-05-06T08:38:56.884Z,991.86
2023-05-06T08:44:01.082Z,992.40
2023-05-06T08:49:05.243Z,992.70
2023-05-06T08:54:09.378Z,992.79
2023-05-06T08:59:13.562Z,992.96
2023-05-06T09:04:17.724Z,993.04
2023-05-06T09:09:21.880Z,993.15
2023-05-06T09:14:26.036Z,993.25
2023-05-06T09:19:30.223Z,993.46
2023-05-06T09:24:34.319Z,994.08
2023-05-06T09:29:38.521Z,994.14
2023-05-06T09:34:42.664Z,994.33
2023-05-06T09:39:46.851Z,994.04
2023-05-06T09:44:50.991Z,994.01
2023-05-06T09:49:53.263Z,994.16
2023-05-06T09:54:57.425Z,994.12
2023-05-06T09:59:59.676Z,994.17
2023-05-06T10:05:04.030Z,994.13
2023-05-06T10:10:08.012Z,994.08
2023-05-06T10:15:12.411Z,994.13
2023-05-06T10:20:16.305Z,994.18
2023-05-06T10:25:20.521Z,994.19
2023-05-06T10:30:24.667Z,994.19
2023-05-06T10:35:28.814Z,994.22
2023-05-06T10:40:32.976Z,994.22
2023-05-06T10:45:37.157Z,994.13
2023-05-06T10:50:41.307Z,994.26
2023-05-06T10:55:45.407Z,994.37
2023-05-06T11:00:49.593Z,994.44
2023-05-06T11:05:53.724Z,994.47
2023-05-06T11:10:57.881Z,994.37
2023-05-06T11:16:02.068Z,994.49
2023-05-06T11:21:06.223Z,994.97
2023-05-06T11:26:10.395Z,994.72
2023-05-06T11:31:14.559Z,994.90
2023-05-06T11:36:18.726Z,995.58
2023-05-06T11:41:22.884Z,1000.80
2023-05-06T11:46:25.171Z,1002.32
2023-05-06T11:51:29.371Z,1002.79
2023-05-06T11:56:31.586Z,1002.97
2023-05-06T12:01:35.692Z,1003.52
2023-05-06T12:06:39.899Z,1003.53
2023-05-06T12:11:45.063Z,1003.96
2023-05-06T12:16:48.389Z,1004.26
2023-05-06T12:21:52.383Z,1004.50
2023-05-06T12:26:56.544Z,1004.34
2023-05-06T12:32:00.879Z,1004.64
2023-05-06T12:37:04.828Z,1004.69
2023-05-06T12:42:08.999Z,1004.45
2023-05-06T12:47:13.182Z,1004.92
2023-05-06T12:52:17.330Z,1005.02
2023-05-06T12:57:21.485Z,1005.06
2023-05-06T13:02:25.780Z,1005.03
2023-05-06T13:07:29.774Z,1005.19
2023-05-06T13:12:33.995Z,1005.55
2023-05-06T13:17:38.139Z,1005.24
2023-05-06T13:22:53.904Z,1005.57
2023-05-06T13:27:46.432Z,1005.72
2023-05-06T13:32:50.655Z,1005.45
2023-05-06T13:37:54.760Z,1005.31
2023-05-06T13:42:57.091Z,1005.43
2023-05-06T13:48:01.204Z,1005.71
2023-05-06T13:53:05.314Z,1005.45
2023-05-06T13:58:09.524Z,1005.51
2023-05-06T14:03:13.653Z,1005.47
2023-05-06T14:08:17.811Z,1005.47
2023-05-06T14:13:22.083Z,1005.11
2023-05-06T14:18:26.691Z,1005.28
2023-05-06T14:23:30.267Z,1005.14
2023-05-06T14:28:34.436Z,1005.41
2023-05-06T14:33:38.690Z,1005.38
2023-05-06T14:38:43.022Z,1005.55
2023-05-06T14:43:46.903Z,1005.35
2023-05-06T14:48:51.049Z,1005.38
2023-05-06T14:53:55.234Z,1005.48
2023-05-06T14:59:00.325Z,1005.38
2023-05-06T15:04:03.565Z,1005.42
2023-05-06T15:09:07.693Z,1005.47
2023-05-06T15:14:11.871Z,1005.40
2023-05-06T15:19:16.025Z,1005.25
2023-05-06T15:24:20.193Z,1005.36
2023-05-06T15:29:22.461Z,1005.33
2023-05-06T15:34:26.623Z,1005.18
2023-05-06T15:39:28.897Z,1005.29
2023-05-06T15:44:33.016Z,1004.76
2023-05-06T15:54:39.996Z,1003.12
2023-05-06T15:59:46.880Z,1002.62
2023-05-06T16:04:47.991Z,991.94
2023-05-06T16:09:51.945Z,992.76
2023-05-06T16:14:56.124Z,993.30
2023-05-06T16:20:00.280Z,993.79
2023-05-06T16:25:13.015Z,993.85
2023-05-06T16:30:08.710Z,993.87
2023-05-06T16:35:12.754Z,993.76
2023-05-06T16:40:16.903Z,993.69
2023-05-06T16:45:21.068Z,993.58
2023-05-06T16:50:25.222Z,993.48
2023-05-06T16:55:29.632Z,993.61
2023-05-06T17:00:33.895Z,993.52
2023-05-06T17:05:37.705Z,993.37
2023-05-06T17:10:41.917Z,993.34
2023-05-06T17:15:46.048Z,993.51
2023-05-06T17:20:56.048Z,993.47
2023-05-06T17:25:54.367Z,993.56
2023-05-06T17:30:58.589Z,993.51
2023-05-06T17:36:02.668Z,993.36
2023-05-06T17:41:04.951Z,993.41
2023-05-06T17:46:09.167Z,993.37
2023-05-06T17:51:13.414Z,993.34
2023-05-06T17:56:17.370Z,993.05
2023-05-06T18:01:21.596Z,992.96
2023-05-06T18:06:25.725Z,993.09
2023-05-06T18:11:29.870Z,993.33
2023-05-06T18:16:34.131Z,993.33
2023-05-06T18:21:38.210Z,993.28
2023-05-06T18:26:45.351Z,993.26
2023-05-06T18:31:46.549Z,993.29
2023-05-06T18:36:53.358Z,993.18
2023-05-06T18:41:54.846Z,993.27
2023-05-06T18:46:59.013Z,993.21
2023-05-06T18:52:03.150Z,993.32
2023-05-06T18:57:07.377Z,993.31
2023-05-06T19:02:11.468Z,993.27
2023-05-06T19:07:16.290Z,993.23
2023-05-06T19:12:19.860Z,993.14
2023-05-06T19:17:24.021Z,993.16
2023-05-06T19:22:28.155Z,993.20
2023-05-06T19:27:30.426Z,993.11
2023-05-06T19:32:34.558Z,993.12
2023-05-06T19:37:36.843Z,993.08
2023-05-06T19:42:41.007Z,992.98
2023-05-06T19:47:45.257Z,993.03
2023-05-06T19:52:49.305Z,992.88
2023-05-06T19:57:53.460Z,992.98
2023-05-06T20:02:57.807Z,993.03
2023-05-06T20:08:01.833Z,993.13
2023-05-06T20:13:06.010Z,993.12
2023-05-06T20:18:10.133Z,993.05
2023-05-06T20:23:14.280Z,993.11
2023-05-06T20:28:18.422Z,993.13
2023-05-06T20:33:22.603Z,993.06
2023-05-06T20:38:26.841Z,993.06
2023-05-06T20:43:30.941Z,993.03
2023-05-06T20:48:35.104Z,993.04
2023-05-06T20:53:39.238Z,993.05
2023-05-06T20:58:43.404Z,993.01
2023-05-06T21:03:47.806Z,992.93
2023-05-06T21:08:51.692Z,992.94
2023-05-06T21:13:55.865Z,992.91
2023-05-06T21:19:00.006Z,992.85
2023-05-06T21:24:02.304Z,992.78
2023-05-06T21:29:06.481Z,992.74
2023-05-06T21:34:08.771Z,992.69
2023-05-06T21:39:12.876Z,992.66
2023-05-06T21:44:17.072Z,992.65
2023-05-06T21:49:21.230Z,992.56
2023-05-06T21:54:25.361Z,992.50
2023-05-06T21:59:29.555Z,992.50
2023-05-06T22:04:33.672Z,992.43
2023-05-06T22:09:37.956Z,992.33
2023-05-06T22:14:42.030Z,992.28
2023-05-06T22:19:46.202Z,992.31
2023-05-06T22:24:50.328Z,992.21
2023-05-06T22:29:54.680Z,992.11
2023-05-06T22:34:58.651Z,992.01
2023-05-06T22:40:02.805Z,991.99
2023-05-06T22:45:06.987Z,992.02
2023-05-06T22:50:11.151Z,991.98
2023-05-06T22:55:15.293Z,992.19
2023-05-06T23:00:19.451Z,992.17
2023-05-06T23:05:23.626Z,992.25
2023-05-06T23:10:27.767Z,992.18
2023-05-06T23:15:32.017Z,992.05
2023-05-06T23:20:34.235Z,992.00
2023-05-06T23:25:38.328Z,991.86
2023-05-06T23:30:40.644Z,991.75
2023-05-06T23:35:44.805Z,991.58
2023-05-06T23:40:48.939Z,991.49
2023-05-06T23:45:53.142Z,991.48
2023-05-06T23:50:57.288Z,991.34
2023-05-06T23:56:01.451Z,991.25
